createdAt,value
2018-03-01T00:00:27.691Z,-6.60
2018-03-01T00:02:58.221Z,-6.50
2018-03-01T00:05:26.606Z,-6.50
2018-03-01T00:07:55.742Z,-6.50
2018-03-01T00:10:25.466Z,-6.60
2018-03-01T00:12:55.317Z,-6.60
2018-03-01T00:15:26.989Z,-6.60
2018-03-01T00:17:56.335Z,-6.60
2018-03-01T00:20:25.551Z,-6.50
2018-03-01T00:22:55.757Z,-6.60
2018-03-01T00:25:26.049Z,-6.70
2018-03-01T00:27:55.842Z,-6.60
2018-03-01T00:30:26.290Z,-6.70
2018-03-01T00:32:55.814Z,-6.70
2018-03-01T00:35:25.099Z,-6.60
2018-03-01T00:37:55.240Z,-6.50
2018-03-01T00:40:35.270Z,-6.60
2018-03-01T00:43:02.794Z,-6.60
2018-03-01T00:45:31.093Z,-6.70
2018-03-01T00:47:59.359Z,-6.70
2018-03-01T00:50:26.886Z,-6.70
2018-03-01T00:52:56.835Z,-6.60
2018-03-01T00:55:36.182Z,-6.60
2018-03-01T00:58:03.677Z,-6.60
2018-03-01T01:00:31.198Z,-6.60
2018-03-01T01:02:58.745Z,-6.60
2018-03-01T01:05:27.033Z,-6.40
2018-03-01T01:07:55.090Z,-6.40
2018-03-01T01:10:25.666Z,-6.50
2018-03-01T01:12:54.905Z,-6.60
2018-03-01T01:15:24.501Z,-6.60
2018-03-01T01:17:54.466Z,-6.60
2018-03-01T01:20:24.773Z,-6.60
2018-03-01T01:22:54.587Z,-6.60
2018-03-01T01:25:25.338Z,-6.70
2018-03-01T01:27:55.321Z,-6.70
2018-03-01T01:30:24.897Z,-6.70
2018-03-01T01:32:54.785Z,-6.70
2018-03-01T01:35:34.474Z,-6.70
2018-03-01T01:38:01.978Z,-6.70
2018-03-01T01:40:29.610Z,-6.70
2018-03-01T01:42:57.876Z,-6.70
2018-03-01T01:45:26.186Z,-6.70
2018-03-01T01:47:55.570Z,-6.70
2018-03-01T01:50:25.565Z,-6.70
2018-03-01T01:52:54.922Z,-6.70
2018-03-01T01:55:23.186Z,-6.60
2018-03-01T01:57:53.650Z,-6.60
2018-03-01T02:00:23.672Z,-6.60
2018-03-01T02:02:54.807Z,-6.60
2018-03-01T02:05:25.138Z,-6.70
2018-03-01T02:07:55.298Z,-6.70
2018-03-01T02:10:25.820Z,-6.70
2018-03-01T02:13:05.269Z,-6.80
2018-03-01T02:15:32.894Z,-6.70
2018-03-01T02:18:01.161Z,-6.80
2018-03-01T02:20:28.687Z,-6.80
2018-03-01T02:22:56.438Z,-6.90
2018-03-01T02:25:26.110Z,-7.00
2018-03-01T02:27:55.930Z,-7.00
2018-03-01T02:30:27.582Z,-6.90
2018-03-01T02:32:55.838Z,-6.90
2018-03-01T02:35:25.906Z,-6.90
2018-03-01T02:37:55.604Z,-7.00
2018-03-01T02:40:25.150Z,-6.90
2018-03-01T02:42:55.714Z,-6.80
2018-03-01T02:45:25.154Z,-6.90
2018-03-01T02:48:03.858Z,-6.90
2018-03-01T02:50:31.387Z,-6.90
2018-03-01T02:52:58.905Z,-6.90
2018-03-01T02:55:27.185Z,-6.90
2018-03-01T02:57:57.742Z,-6.80
2018-03-01T03:00:27.561Z,-6.80
2018-03-01T03:02:56.505Z,-6.90
2018-03-01T03:05:26.986Z,-6.90
2018-03-01T03:07:56.226Z,-6.90
2018-03-01T03:10:35.549Z,-6.80
2018-03-01T03:13:03.065Z,-6.80
2018-03-01T03:15:30.662Z,-6.80
2018-03-01T03:17:58.183Z,-6.80
2018-03-01T03:20:26.477Z,-6.70
2018-03-01T03:22:54.914Z,-6.70
2018-03-01T03:25:25.462Z,-6.70
2018-03-01T03:27:55.574Z,-6.60
2018-03-01T03:30:26.125Z,-6.70
2018-03-01T03:32:54.979Z,-6.70
2018-03-01T03:35:26.018Z,-6.70
2018-03-01T03:37:54.347Z,-6.70
2018-03-01T03:40:34.745Z,-6.70
2018-03-01T03:43:03.029Z,-6.70
2018-03-01T03:45:31.301Z,-6.70
2018-03-01T03:47:58.821Z,-6.70
2018-03-01T03:50:27.485Z,-6.80
2018-03-01T03:52:56.189Z,-6.80
2018-03-01T03:55:26.015Z,-6.70
2018-03-01T03:57:57.767Z,-6.70
2018-03-01T04:00:28.639Z,-6.70
2018-03-01T04:02:56.942Z,-6.60
2018-03-01T04:05:27.320Z,-6.50
2018-03-01T04:07:56.770Z,-6.60
2018-03-01T04:10:25.953Z,-6.60
2018-03-01T04:12:56.766Z,-6.50
2018-03-01T04:15:26.762Z,-6.50
2018-03-01T04:17:57.806Z,-6.50
2018-03-01T04:20:26.500Z,-6.50
2018-03-01T04:23:05.798Z,-6.60
2018-03-01T04:25:33.323Z,-6.60
2018-03-01T04:28:00.824Z,-6.70
2018-03-01T04:30:28.453Z,-6.70
2018-03-01T04:32:58.794Z,-6.60
2018-03-01T04:35:27.834Z,-6.60
2018-03-01T04:37:56.843Z,-6.40
2018-03-01T04:40:25.805Z,-6.50
2018-03-01T04:42:56.542Z,-6.40
2018-03-01T04:45:36.541Z,-6.40
2018-03-01T04:48:04.137Z,-6.30
2018-03-01T04:50:32.421Z,-6.30
2018-03-01T04:53:00.700Z,-6.30
2018-03-01T04:55:29.033Z,-6.30
2018-03-01T04:57:59.217Z,-6.30
2018-03-01T05:00:29.908Z,-6.20
2018-03-01T05:02:59.727Z,-6.20
2018-03-01T05:05:28.051Z,-6.30
2018-03-01T05:07:59.734Z,-6.30
2018-03-01T05:10:30.010Z,-6.30
2018-03-01T05:12:59.862Z,-6.30
2018-03-01T05:15:28.794Z,-6.20
2018-03-01T05:17:57.847Z,-6.30
2018-03-01T05:20:29.417Z,-6.20
2018-03-01T05:22:59.879Z,-6.20
2018-03-01T05:25:29.460Z,-6.20
2018-03-01T05:27:59.650Z,-6.20
2018-03-01T05:30:29.809Z,-6.20
2018-03-01T05:33:09.639Z,-6.20
2018-03-01T05:35:37.473Z,-6.20
2018-03-01T05:38:05.081Z,-6.20
2018-03-01T05:40:32.589Z,-6.20
2018-03-01T05:43:00.102Z,-6.20
2018-03-01T05:45:29.993Z,-6.20
2018-03-01T05:47:59.822Z,-6.20
2018-03-01T05:50:27.633Z,-6.20
2018-03-01T05:52:57.660Z,-6.10
2018-03-01T05:55:28.469Z,-6.10
2018-03-01T05:57:56.358Z,-6.20
2018-03-01T06:00:27.702Z,-6.10
2018-03-01T06:02:58.062Z,-6.20
2018-03-01T06:05:29.193Z,-6.20
2018-03-01T06:07:57.460Z,-6.10
2018-03-01T06:10:28.878Z,-6.10
2018-03-01T06:12:59.090Z,-6.10
2018-03-01T06:15:29.400Z,-6.00
2018-03-01T06:17:58.391Z,-6.00
2018-03-01T06:20:29.522Z,-6.00
2018-03-01T06:22:57.054Z,-6.00
2018-03-01T06:25:24.666Z,-6.00
2018-03-01T06:27:54.184Z,-6.00
2018-03-01T06:30:22.605Z,-6.00
2018-03-01T06:32:53.609Z,-6.00
2018-03-01T06:35:22.141Z,-6.00
2018-03-01T06:37:54.332Z,-6.00
2018-03-01T06:40:22.773Z,-6.00
2018-03-01T06:42:54.420Z,-6.00
2018-03-01T06:45:24.621Z,-5.90
2018-03-01T06:47:57.400Z,-5.90
2018-03-01T06:50:25.971Z,-5.90
2018-03-01T06:52:54.320Z,-5.80
2018-03-01T06:55:22.042Z,-5.70
2018-03-01T06:58:02.898Z,-5.70
2018-03-01T07:00:30.407Z,-5.60
2018-03-01T07:03:00.503Z,-5.60
2018-03-01T07:05:28.010Z,-5.60
2018-03-01T07:07:55.622Z,-5.60
2018-03-01T07:10:23.886Z,-5.50
2018-03-01T07:12:53.219Z,-5.60
2018-03-01T07:15:23.605Z,-5.40
2018-03-01T07:17:52.257Z,-5.30
2018-03-01T07:20:23.605Z,-5.10
2018-03-01T07:22:52.843Z,-4.50
2018-03-01T07:25:20.482Z,-4.50
2018-03-01T07:27:48.013Z,-4.40
2018-03-01T07:30:15.532Z,-4.40
2018-03-01T07:32:43.818Z,-4.40
2018-03-01T07:35:12.084Z,-4.40
2018-03-01T07:37:41.043Z,-4.40
2018-03-01T07:40:09.742Z,-4.30
2018-03-01T07:42:38.178Z,-4.00
2018-03-01T07:45:18.219Z,-3.90
2018-03-01T07:47:45.748Z,-3.60
2018-03-01T07:50:14.026Z,-3.40
2018-03-01T07:52:42.006Z,-3.50
2018-03-01T07:55:09.525Z,-3.30
2018-03-01T07:57:41.314Z,-3.30
2018-03-01T08:00:14.362Z,-3.30
2018-03-01T08:02:42.544Z,-3.10
2018-03-01T08:05:10.097Z,-3.10
2018-03-01T08:07:38.849Z,-3.10
2018-03-01T08:10:07.811Z,-2.70
2018-03-01T08:12:38.519Z,-2.60
2018-03-01T08:15:16.770Z,-2.90
2018-03-01T08:17:44.270Z,-3.30
2018-03-01T08:20:12.558Z,-3.30
2018-03-01T08:22:40.857Z,-3.40
2018-03-01T08:25:09.181Z,-3.40
2018-03-01T08:27:39.718Z,-3.00
2018-03-01T08:30:10.678Z,-2.80
2018-03-01T08:32:39.669Z,-2.90
2018-03-01T08:35:09.789Z,-2.20
2018-03-01T08:37:37.398Z,-2.60
2018-03-01T08:40:08.133Z,-2.30
2018-03-01T08:42:38.501Z,-1.70
2018-03-01T08:45:08.671Z,-0.80
2018-03-01T08:47:38.823Z,0.30
2018-03-01T08:50:17.106Z,-0.10
2018-03-01T08:52:44.707Z,-0.70
2018-03-01T08:55:13.005Z,0.30
2018-03-01T08:57:41.298Z,0.90
2018-03-01T09:00:09.579Z,0.10
2018-03-01T09:02:38.253Z,-0.40
2018-03-01T09:05:18.611Z,-0.50
2018-03-01T09:07:46.122Z,-1.00
2018-03-01T09:10:14.410Z,-1.70
2018-03-01T09:12:42.678Z,-2.00
2018-03-01T09:15:10.203Z,-2.00
2018-03-01T09:17:39.534Z,-1.90
2018-03-01T09:20:08.998Z,-1.90
2018-03-01T09:22:37.948Z,-1.30
2018-03-01T09:25:05.806Z,-1.30
2018-03-01T09:27:33.457Z,-1.00
2018-03-01T09:30:02.148Z,-0.90
2018-03-01T09:32:32.259Z,-0.80
2018-03-01T09:35:02.866Z,-0.60
2018-03-01T09:37:33.311Z,-0.30
2018-03-01T09:40:03.358Z,0.00
2018-03-01T09:42:35.517Z,0.00
2018-03-01T09:45:06.457Z,0.10
2018-03-01T09:47:35.742Z,-0.20
2018-03-01T09:50:06.969Z,-0.40
2018-03-01T09:52:36.848Z,-0.40
2018-03-01T09:55:07.838Z,-0.30
2018-03-01T09:57:37.344Z,0.00
2018-03-01T10:00:07.359Z,0.20
2018-03-01T10:02:48.178Z,-0.10
2018-03-01T10:05:15.703Z,-0.10
2018-03-01T10:07:43.199Z,0.40
2018-03-01T10:10:10.746Z,0.40
2018-03-01T10:12:39.970Z,0.50
2018-03-01T10:15:08.903Z,0.50
2018-03-01T10:17:38.490Z,0.50
2018-03-01T10:20:06.524Z,0.60
2018-03-01T10:22:46.223Z,1.80
2018-03-01T10:25:13.778Z,1.80
2018-03-01T10:27:42.074Z,1.70
2018-03-01T10:30:10.353Z,1.80
2018-03-01T10:32:39.722Z,1.70
2018-03-01T10:35:07.583Z,1.70
2018-03-01T10:37:35.362Z,1.40
2018-03-01T10:40:03.092Z,1.00
2018-03-01T10:42:40.573Z,0.90
2018-03-01T10:45:08.090Z,0.90
2018-03-01T10:47:35.646Z,0.90
2018-03-01T10:50:04.090Z,0.90
2018-03-01T10:52:32.637Z,0.80
2018-03-01T10:55:01.288Z,0.90
2018-03-01T10:57:31.785Z,0.90
2018-03-01T10:59:59.582Z,0.90
2018-03-01T11:02:27.668Z,1.10
2018-03-01T11:04:55.420Z,1.20
2018-03-01T11:07:22.906Z,1.40
2018-03-01T11:09:51.176Z,1.90
2018-03-01T11:12:19.632Z,1.70
2018-03-01T11:14:47.365Z,1.60
2018-03-01T11:17:14.946Z,1.80
2018-03-01T11:19:43.182Z,2.50
2018-03-01T11:22:12.400Z,2.40
2018-03-01T11:24:40.112Z,2.20
2018-03-01T11:27:10.345Z,2.70
2018-03-01T11:29:38.380Z,2.70
2018-03-01T11:32:06.668Z,3.20
2018-03-01T11:34:35.721Z,2.90
2018-03-01T11:37:03.320Z,2.90
2018-03-01T11:39:31.089Z,3.40
2018-03-01T11:41:59.142Z,3.80
2018-03-01T11:44:26.726Z,3.60
2018-03-01T11:46:54.285Z,4.00
2018-03-01T11:49:22.546Z,3.90
2018-03-01T11:51:50.061Z,3.90
2018-03-01T11:54:17.566Z,4.10
2018-03-01T11:56:45.407Z,3.70
2018-03-01T11:59:13.288Z,3.50
2018-03-01T12:01:41.239Z,3.50
2018-03-01T12:04:12.201Z,2.60
2018-03-01T12:06:42.193Z,2.60
2018-03-01T12:09:13.762Z,2.50
2018-03-01T12:11:43.774Z,2.70
2018-03-01T12:14:13.972Z,2.70
2018-03-01T12:16:43.500Z,2.90
2018-03-01T12:19:13.233Z,2.50
2018-03-01T12:21:51.582Z,2.40
2018-03-01T12:24:19.085Z,2.30
2018-03-01T12:26:47.182Z,2.20
2018-03-01T12:29:16.396Z,2.10
2018-03-01T12:31:45.214Z,2.10
2018-03-01T12:34:13.709Z,2.10
2018-03-01T12:36:42.082Z,2.40
2018-03-01T12:39:10.244Z,2.10
2018-03-01T12:41:49.153Z,2.50
2018-03-01T12:44:16.681Z,2.40
2018-03-01T12:46:45.069Z,2.70
2018-03-01T12:49:23.261Z,2.50
2018-03-01T12:51:50.779Z,2.50
2018-03-01T12:54:18.287Z,2.40
2018-03-01T12:56:45.973Z,2.50
2018-03-01T12:59:23.731Z,2.40
2018-03-01T13:01:51.266Z,2.30
2018-03-01T13:04:21.214Z,2.30
2018-03-01T13:06:49.478Z,2.70
2018-03-01T13:09:17.595Z,2.70
2018-03-01T13:11:46.518Z,2.80
2018-03-01T13:14:14.986Z,2.70
2018-03-01T13:16:44.354Z,2.70
2018-03-01T13:19:14.427Z,2.90
2018-03-01T13:21:48.696Z,2.90
2018-03-01T13:24:18.175Z,3.00
2018-03-01T13:26:45.814Z,3.10
2018-03-01T13:29:13.932Z,2.80
2018-03-01T13:31:53.150Z,2.90
2018-03-01T13:34:39.371Z,2.90
2018-03-01T13:37:09.153Z,3.00
2018-03-01T13:39:41.649Z,3.20
2018-03-01T13:45:14.073Z,3.00
2018-03-01T13:47:42.566Z,2.90
2018-03-01T13:50:13.462Z,3.10
2018-03-01T13:52:44.275Z,3.10
2018-03-01T13:55:22.634Z,3.00
2018-03-01T13:57:50.182Z,3.00
2018-03-01T14:00:17.718Z,3.00
2018-03-01T14:02:46.331Z,2.90
2018-03-01T14:05:15.437Z,2.90
2018-03-01T14:07:48.021Z,2.80
2018-03-01T14:10:16.569Z,2.60
2018-03-01T14:12:46.356Z,2.70
2018-03-01T14:15:16.546Z,2.70
2018-03-01T14:17:50.799Z,2.50
2018-03-01T14:20:21.950Z,2.50
2018-03-01T14:22:55.106Z,2.40
2018-03-01T14:25:24.065Z,2.40
2018-03-01T14:28:09.050Z,2.50
2018-03-01T14:30:40.830Z,2.40
2018-03-01T14:33:12.234Z,2.40
2018-03-01T14:35:43.429Z,2.40
2018-03-01T14:38:14.449Z,2.50
2018-03-01T14:40:43.712Z,2.50
2018-03-01T14:43:15.034Z,2.40
2018-03-01T14:45:45.515Z,2.30
2018-03-01T14:48:14.426Z,2.30
2018-03-01T14:50:44.265Z,2.30
2018-03-01T14:53:14.440Z,2.40
2018-03-01T14:55:44.097Z,2.40
2018-03-01T14:58:15.444Z,2.40
2018-03-01T15:00:45.474Z,2.50
2018-03-01T15:03:14.466Z,2.50
2018-03-01T15:05:45.158Z,2.50
2018-03-01T15:08:14.601Z,2.50
2018-03-01T15:10:43.571Z,2.60
2018-03-01T15:13:14.053Z,2.50
2018-03-01T15:15:44.904Z,2.40
2018-03-01T15:18:14.167Z,2.40
2018-03-01T15:20:53.446Z,2.40
2018-03-01T15:23:20.942Z,2.30
2018-03-01T15:25:50.057Z,2.30
2018-03-01T15:28:18.070Z,2.20
2018-03-01T15:30:46.919Z,2.20
2018-03-01T15:33:16.951Z,2.20
2018-03-01T15:35:47.922Z,2.20
2018-03-01T15:38:16.954Z,2.20
2018-03-01T15:40:46.975Z,2.10
2018-03-01T15:43:26.723Z,1.90
2018-03-01T15:45:55.022Z,1.90
2018-03-01T15:48:23.285Z,1.80
2018-03-01T15:50:50.883Z,1.90
2018-03-01T15:53:19.150Z,1.80
2018-03-01T15:55:47.921Z,1.80
2018-03-01T15:58:18.967Z,1.70
2018-03-01T16:00:51.564Z,1.60
2018-03-01T16:03:19.094Z,1.60
2018-03-01T16:05:47.090Z,1.50
2018-03-01T16:08:16.105Z,1.50
2018-03-01T16:10:48.697Z,1.50
2018-03-01T16:13:18.668Z,1.40
2018-03-01T16:15:48.593Z,1.30
2018-03-01T16:18:17.614Z,1.20
2018-03-01T16:20:47.058Z,1.20
2018-03-01T16:23:18.126Z,1.10
2018-03-01T16:25:49.612Z,1.10
2018-03-01T16:28:24.515Z,1.10
2018-03-01T16:30:52.297Z,1.10
2018-03-01T16:33:21.719Z,0.90
2018-03-01T16:35:50.001Z,0.80
2018-03-01T16:38:18.607Z,0.80
2018-03-01T16:40:47.930Z,0.70
2018-03-01T16:43:17.435Z,0.60
2018-03-01T16:45:47.430Z,0.50
2018-03-01T16:48:17.290Z,0.50
2018-03-01T16:50:55.879Z,0.40
2018-03-01T16:53:23.391Z,0.40
2018-03-01T16:55:52.830Z,0.20
2018-03-01T16:58:20.386Z,0.10
2018-03-01T17:00:48.142Z,0.00
2018-03-01T17:03:26.537Z,0.00
2018-03-01T17:05:54.082Z,0.00
2018-03-01T17:08:21.606Z,0.00
2018-03-01T17:10:49.133Z,-0.10
2018-03-01T17:13:17.577Z,-0.20
2018-03-01T17:15:47.947Z,-0.30
2018-03-01T17:18:17.660Z,-0.30
2018-03-01T17:20:47.087Z,-0.30
2018-03-01T17:23:17.509Z,-0.40
2018-03-01T17:25:46.802Z,-0.40
2018-03-01T17:28:15.791Z,-0.40
2018-03-01T17:30:56.038Z,-0.50
2018-03-01T17:33:23.542Z,-0.60
2018-03-01T17:35:51.069Z,-0.50
2018-03-01T17:38:18.589Z,-0.60
2018-03-01T17:40:47.627Z,-0.70
2018-03-01T17:43:16.848Z,-0.60
2018-03-01T17:45:46.074Z,-0.70
2018-03-01T17:48:16.966Z,-0.80
2018-03-01T17:51:03.593Z,-0.80
2018-03-01T17:53:33.822Z,-0.90
2018-03-01T17:56:01.542Z,-1.00
2018-03-01T17:58:29.814Z,-1.00
2018-03-01T18:00:57.339Z,-1.00
2018-03-01T18:03:24.849Z,-1.00
2018-03-01T18:05:52.353Z,-1.00
2018-03-01T18:08:20.677Z,-1.20
2018-03-01T18:10:48.246Z,-1.20
2018-03-01T18:13:17.635Z,-1.20
2018-03-01T18:15:57.598Z,-1.10
2018-03-01T18:18:25.121Z,-1.10
2018-03-01T18:20:54.322Z,-1.10
2018-03-01T18:23:33.734Z,-1.30
2018-03-01T18:26:02.564Z,-1.20
2018-03-01T18:28:32.708Z,-1.20
2018-03-01T18:31:04.407Z,-1.20
2018-03-01T18:33:43.227Z,-1.50
2018-03-01T18:36:18.298Z,-1.50
2018-03-01T18:38:52.519Z,-1.50
2018-03-01T18:41:27.034Z,-1.50
2018-03-01T18:43:58.490Z,-1.50
2018-03-01T18:46:26.018Z,-1.60
2018-03-01T18:48:53.521Z,-1.60
2018-03-01T18:51:21.030Z,-1.70
2018-03-01T18:53:48.773Z,-1.70
2018-03-01T18:56:19.986Z,-1.80
2018-03-01T18:58:50.562Z,-1.60
2018-03-01T19:01:20.278Z,-1.50
2018-03-01T19:03:54.194Z,-1.50
2018-03-01T19:06:22.494Z,-1.70
2018-03-01T19:08:50.562Z,-1.70
2018-03-01T19:11:20.606Z,-1.70
2018-03-01T19:13:48.806Z,-1.70
2018-03-01T19:16:29.189Z,-1.80
2018-03-01T19:18:56.714Z,-1.80
2018-03-01T19:21:41.129Z,-1.80
2018-03-01T19:24:17.620Z,-1.80
2018-03-01T19:26:52.462Z,-1.80
2018-03-01T19:29:19.992Z,-1.80
2018-03-01T19:31:48.746Z,-1.90
2018-03-01T19:34:18.429Z,-1.90
2018-03-01T19:36:48.386Z,-2.00
2018-03-01T19:39:18.663Z,-2.00
2018-03-01T19:41:49.511Z,-2.00
2018-03-01T19:44:19.570Z,-2.00
2018-03-01T19:46:47.579Z,-2.00
2018-03-01T19:49:16.652Z,-2.00
2018-03-01T19:51:55.070Z,-2.00
2018-03-01T19:54:22.591Z,-2.10
2018-03-01T19:56:50.862Z,-2.20
2018-03-01T19:59:18.914Z,-2.30
2018-03-01T20:01:47.790Z,-2.30
2018-03-01T20:04:18.174Z,-2.30
2018-03-01T20:06:52.830Z,-2.30
2018-03-01T20:09:23.766Z,-2.30
2018-03-01T20:11:54.682Z,-2.30
2018-03-01T20:14:24.587Z,-2.30
2018-03-01T20:16:55.337Z,-2.30
2018-03-01T20:19:36.086Z,-2.30
2018-03-01T20:22:03.604Z,-2.30
2018-03-01T20:24:31.163Z,-2.40
2018-03-01T20:26:58.829Z,-2.40
2018-03-01T20:29:27.220Z,-2.50
2018-03-01T20:31:55.664Z,-2.50
2018-03-01T20:34:28.857Z,-2.60
2018-03-01T20:36:57.546Z,-2.60
2018-03-01T20:39:26.618Z,-2.60
2018-03-01T20:41:56.598Z,-2.60
2018-03-01T20:44:35.753Z,-2.60
2018-03-01T20:47:03.258Z,-2.60
2018-03-01T20:49:30.779Z,-2.60
2018-03-01T20:51:58.298Z,-2.70
2018-03-01T20:54:26.682Z,-2.80
2018-03-01T20:56:55.814Z,-2.80
2018-03-01T20:59:24.715Z,-2.80
2018-03-01T21:01:53.340Z,-2.80
2018-03-01T21:04:21.828Z,-2.80
2018-03-01T21:06:51.939Z,-2.80
2018-03-01T21:09:25.577Z,-2.80
2018-03-01T21:11:54.221Z,-2.80
2018-03-01T21:14:23.364Z,-2.80
2018-03-01T21:16:52.823Z,-2.90
2018-03-01T21:19:22.787Z,-2.90
2018-03-01T21:21:54.967Z,-3.00
2018-03-01T21:24:26.319Z,-3.00
2018-03-01T21:26:55.290Z,-2.90
2018-03-01T21:29:26.072Z,-3.00
2018-03-01T21:31:54.085Z,-3.00
2018-03-01T21:34:32.393Z,-3.00
2018-03-01T21:36:59.902Z,-2.90
2018-03-01T21:39:27.422Z,-3.00
2018-03-01T21:41:55.317Z,-3.10
2018-03-01T21:44:25.015Z,-3.10
2018-03-01T21:47:04.442Z,-3.00
2018-03-01T21:49:31.977Z,-3.10
2018-03-01T21:52:00.255Z,-3.10
2018-03-01T21:54:27.778Z,-3.10
2018-03-01T21:56:56.357Z,-3.10
2018-03-01T21:59:26.361Z,-3.10
2018-03-01T22:01:54.652Z,-3.10
2018-03-01T22:04:25.018Z,-3.10
2018-03-01T22:06:55.130Z,-3.20
2018-03-01T22:09:33.150Z,-3.10
2018-03-01T22:12:01.422Z,-3.20
2018-03-01T22:14:29.717Z,-3.20
2018-03-01T22:16:57.995Z,-3.20
2018-03-01T22:19:25.776Z,-3.20
2018-03-01T22:21:54.864Z,-3.20
2018-03-01T22:24:24.542Z,-3.10
2018-03-01T22:26:54.541Z,-3.20
2018-03-01T22:29:23.845Z,-3.20
2018-03-01T22:32:01.505Z,-3.30
2018-03-01T22:34:29.001Z,-3.30
2018-03-01T22:36:56.519Z,-3.30
2018-03-01T22:39:25.194Z,-3.40
2018-03-01T22:41:54.310Z,-3.50
2018-03-01T22:44:22.329Z,-3.50
2018-03-01T22:46:51.152Z,-3.40
2018-03-01T22:49:20.146Z,-3.40
2018-03-01T22:51:48.821Z,-3.50
2018-03-01T22:54:17.832Z,-3.40
2018-03-01T22:56:46.614Z,-3.50
2018-03-01T22:59:26.837Z,-3.50
2018-03-01T23:01:54.631Z,-3.60
2018-03-01T23:04:24.734Z,-3.50
2018-03-01T23:06:53.436Z,-3.50
2018-03-01T23:09:31.766Z,-3.60
2018-03-01T23:11:59.291Z,-3.60
2018-03-01T23:14:27.557Z,-3.60
2018-03-01T23:16:55.468Z,-3.60
2018-03-01T23:19:24.359Z,-3.60
2018-03-01T23:21:53.146Z,-3.60
2018-03-01T23:24:23.329Z,-3.70
2018-03-01T23:26:54.622Z,-3.50
2018-03-01T23:29:22.871Z,-3.60
2018-03-01T23:32:02.514Z,-3.60
2018-03-01T23:34:30.777Z,-3.50
2018-03-01T23:36:58.370Z,-3.50
2018-03-01T23:39:26.638Z,-3.60
2018-03-01T23:41:54.825Z,-3.60
2018-03-01T23:44:33.426Z,-3.60
2018-03-01T23:47:00.941Z,-3.70
2018-03-01T23:49:29.209Z,-3.70
2018-03-01T23:51:56.766Z,-3.70
2018-03-01T23:54:25.548Z,-3.70
2018-03-01T23:56:55.418Z,-3.70
2018-03-01T23:59:24.825Z,-3.70
